Time;durP1;ratioP1;P1;durP2;ratioP2;P2;SDS_P1;SDS_P2;PMS_P1;PMS_P2;Temp;Humidity;BMP_temperature;BMP_pressure;BME280_temperature;BME280_humidity;BME280_pressure;Samples;Min_cycle;Max_cycle;Signal;HPM_P1;HPM_P2
2021/09/26 00:01:27;;;;;;;17.77;16.13;;;14.70;99.90;;;;;;4981652;28;20471;-70
2021/09/26 00:04:03;;;;;;;16.73;15.10;;;14.70;99.90;;;;;;4987808;28;20514;-70
2021/09/26 00:06:30;;;;;;;18.23;16.17;;;14.70;99.90;;;;;;4979270;28;20487;-70
2021/09/26 00:08:57;;;;;;;17.07;15.50;;;14.70;99.90;;;;;;4977095;28;20471;-71
2021/09/26 00:11:24;;;;;;;18.67;16.77;;;14.70;99.90;;;;;;4977420;28;20967;-70
2021/09/26 00:13:51;;;;;;;17.57;15.53;;;14.70;99.90;;;;;;4976979;28;20491;-71
2021/09/26 00:16:19;;;;;;;16.80;15.17;;;14.70;99.90;;;;;;4972668;28;20493;-70
2021/09/26 00:18:47;;;;;;;15.23;14.03;;;14.80;99.90;;;;;;4976737;28;20475;-68
2021/09/26 00:21:14;;;;;;;16.63;14.50;;;14.70;99.90;;;;;;4975526;28;20467;-68
2021/09/26 00:23:41;;;;;;;15.97;14.50;;;14.80;99.90;;;;;;4976100;28;20512;-70
2021/09/26 00:26:08;;;;;;;15.87;14.43;;;14.70;99.90;;;;;;4975260;28;20462;-68
2021/09/26 00:28:35;;;;;;;14.30;13.10;;;14.70;99.90;;;;;;4976190;28;20618;-68
2021/09/26 00:31:03;;;;;;;16.70;15.10;;;14.80;99.90;;;;;;4971580;28;20472;-68
2021/09/26 00:33:30;;;;;;;15.10;13.90;;;14.80;99.90;;;;;;4974095;28;20463;-68
2021/09/26 00:35:58;;;;;;;15.13;13.73;;;14.80;99.90;;;;;;4964596;28;20501;-69
2021/09/26 00:38:25;;;;;;;15.90;14.40;;;14.80;99.90;;;;;;4970818;28;20461;-71
2021/09/26 00:40:53;;;;;;;16.83;15.33;;;14.80;99.90;;;;;;4976115;28;20494;-69
2021/09/26 00:43:20;;;;;;;15.67;14.30;;;14.90;99.90;;;;;;4976245;28;20467;-70
2021/09/26 00:45:51;;;;;;;16.03;14.53;;;14.80;99.90;;;;;;4968130;28;21016;-69
2021/09/26 00:48:17;;;;;;;14.33;12.90;;;14.90;99.90;;;;;;4956777;28;20578;-68
2021/09/26 00:50:44;;;;;;;15.20;13.80;;;14.90;99.90;;;;;;4973591;28;20551;-70
2021/09/26 00:53:12;;;;;;;16.23;14.73;;;14.90;99.90;;;;;;4975131;28;20471;-70
2021/09/26 00:55:39;;;;;;;15.63;14.33;;;14.90;99.90;;;;;;4966824;28;20461;-70
2021/09/26 00:58:06;;;;;;;15.67;14.30;;;14.90;99.90;;;;;;4956171;28;20560;-70
2021/09/26 01:00:33;;;;;;;16.03;14.63;;;14.90;99.90;;;;;;4956573;28;20500;-70
2021/09/26 01:03:00;;;;;;;14.90;13.70;;;15.00;99.90;;;;;;4955210;28;20516;-70
2021/09/26 01:05:27;;;;;;;14.77;13.60;;;15.00;99.90;;;;;;4962578;28;20476;-70
2021/09/26 01:08:05;;;;;;;13.27;12.10;;;15.00;99.90;;;;;;4974241;28;20466;-70
2021/09/26 01:10:47;;;;;;;13.97;12.50;;;15.10;99.90;;;;;;4975459;28;20500;-70
2021/09/26 01:13:23;;;;;;;13.70;12.50;;;15.10;99.90;;;;;;4974880;28;20467;-70
2021/09/26 01:16:06;;;;;;;14.67;13.13;;;15.10;99.90;;;;;;4965240;28;20456;-70
2021/09/26 01:18:47;;;;;;;13.83;12.40;;;15.10;99.90;;;;;;4955340;28;20921;-70
2021/09/26 01:21:27;;;;;;;14.43;13.17;;;15.10;99.90;;;;;;4965510;28;20948;-70
2021/09/26 01:24:41;;;;;;;14.93;13.53;;;15.20;99.90;;;;;;4974901;28;20530;-70
2021/09/26 01:27:22;;;;;;;14.80;13.30;;;15.20;99.90;;;;;;4915160;29;20897;-70
2021/09/26 01:30:17;;;;;;;14.23;13.00;;;15.20;99.90;;;;;;4956205;28;20457;-71
2021/09/26 01:32:51;;;;;;;14.33;13.23;;;15.20;99.90;;;;;;4954590;28;20571;-70
2021/09/26 01:35:22;;;;;;;13.90;12.50;;;15.20;99.90;;;;;;4956093;28;20477;-70
2021/09/26 01:38:04;;;;;;;13.97;12.60;;;15.20;99.90;;;;;;4955491;28;20547;-70
2021/09/26 01:40:36;;;;;;;15.30;13.90;;;15.20;99.90;;;;;;4955782;28;20543;-70
2021/09/26 01:43:08;;;;;;;13.93;12.73;;;15.30;99.90;;;;;;4954741;28;20472;-70
2021/09/26 01:45:44;;;;;;;14.87;13.37;;;15.30;99.90;;;;;;4961634;28;20878;-71
2021/09/26 01:48:14;;;;;;;12.67;11.20;;;15.30;99.90;;;;;;4973957;28;20486;-69
2021/09/26 01:50:42;;;;;;;14.23;12.90;;;15.30;99.90;;;;;;4975310;28;20463;-69
2021/09/26 01:53:11;;;;;;;13.43;12.30;;;15.30;99.90;;;;;;4974377;28;20824;-69
2021/09/26 01:55:38;;;;;;;12.33;11.23;;;15.30;99.90;;;;;;4967048;28;20480;-69
2021/09/26 01:58:05;;;;;;;13.33;12.10;;;15.30;99.90;;;;;;4970515;28;20480;-69
2021/09/26 02:00:33;;;;;;;12.77;11.67;;;15.30;99.90;;;;;;4974429;28;20463;-69
2021/09/26 02:03:01;;;;;;;13.77;12.67;;;15.30;99.90;;;;;;4973002;28;20464;-69
2021/09/26 02:05:29;;;;;;;13.70;12.50;;;15.40;99.90;;;;;;4968833;28;20484;-71
2021/09/26 02:08:00;;;;;;;13.77;12.57;;;15.30;99.90;;;;;;4954517;28;20874;-71
2021/09/26 02:10:28;;;;;;;13.50;12.10;;;15.30;99.90;;;;;;4963066;28;20515;-72
2021/09/26 02:12:56;;;;;;;12.97;11.70;;;15.30;99.90;;;;;;4973856;28;20468;-70
2021/09/26 02:15:25;;;;;;;14.37;12.93;;;15.30;99.90;;;;;;4969459;28;20798;-70
2021/09/26 02:17:54;;;;;;;13.47;12.27;;;15.40;99.90;;;;;;4953798;28;20540;-70
2021/09/26 02:20:23;;;;;;;14.27;13.07;;;15.30;99.90;;;;;;4955381;28;20464;-70
2021/09/26 02:22:51;;;;;;;13.47;12.10;;;15.40;99.90;;;;;;4954109;28;20468;-70
2021/09/26 02:25:20;;;;;;;13.80;12.60;;;15.40;99.90;;;;;;4957795;28;20483;-70
2021/09/26 02:27:50;;;;;;;13.60;12.20;;;15.40;99.90;;;;;;4973549;28;20913;-70
2021/09/26 02:30:18;;;;;;;12.97;11.90;;;15.40;99.90;;;;;;4974166;28;20466;-70
2021/09/26 02:32:46;;;;;;;12.23;11.13;;;15.40;99.90;;;;;;4972636;28;20463;-70
2021/09/26 02:35:14;;;;;;;13.20;12.00;;;15.40;99.90;;;;;;4970641;28;20543;-70
2021/09/26 02:37:43;;;;;;;14.10;12.40;;;15.40;99.90;;;;;;4955592;28;20504;-70
2021/09/26 02:40:11;;;;;;;12.83;11.73;;;15.40;99.90;;;;;;4954377;28;20847;-69
2021/09/26 02:42:48;;;;;;;12.90;11.63;;;15.40;99.90;;;;;;4954054;28;20499;-69
2021/09/26 02:45:21;;;;;;;14.47;12.93;;;15.40;99.90;;;;;;4956876;28;20920;-69
2021/09/26 02:47:52;;;;;;;13.00;11.77;;;15.40;99.90;;;;;;4972698;28;20546;-69
2021/09/26 02:50:20;;;;;;;13.37;12.20;;;15.40;99.90;;;;;;4973865;28;20805;-69
2021/09/26 02:52:49;;;;;;;12.53;11.50;;;15.40;99.90;;;;;;4973354;28;20483;-68
2021/09/26 02:55:17;;;;;;;12.20;11.20;;;15.40;99.90;;;;;;4971027;28;20542;-68
2021/09/26 02:57:44;;;;;;;13.33;12.23;;;15.40;99.90;;;;;;4955018;28;21047;-68
2021/09/26 03:00:13;;;;;;;12.47;11.37;;;15.40;99.90;;;;;;4966368;28;20952;-69
2021/09/26 03:02:40;;;;;;;13.33;12.23;;;15.40;99.90;;;;;;4972835;28;20471;-70
2021/09/26 03:05:09;;;;;;;14.07;12.97;;;15.50;99.90;;;;;;4973556;28;20587;-70
2021/09/26 03:07:35;;;;;;;12.10;11.00;;;15.50;99.90;;;;;;4966135;28;20571;-70
2021/09/26 03:10:06;;;;;;;12.50;11.40;;;15.50;99.90;;;;;;4954227;28;20461;-70
2021/09/26 03:12:33;;;;;;;12.37;11.37;;;15.50;99.90;;;;;;4953330;28;20551;-70
2021/09/26 03:14:59;;;;;;;12.80;11.70;;;15.40;99.90;;;;;;4954130;28;20494;-70
2021/09/26 03:17:26;;;;;;;12.40;11.40;;;15.40;99.90;;;;;;4954227;28;20908;-70
2021/09/26 03:19:53;;;;;;;12.80;11.60;;;15.50;99.90;;;;;;4954058;28;20828;-70
2021/09/26 03:22:19;;;;;;;12.40;11.40;;;15.40;99.90;;;;;;4953630;28;20888;-70
2021/09/26 03:24:46;;;;;;;12.90;11.90;;;15.50;99.90;;;;;;4953791;28;20492;-70
2021/09/26 03:27:14;;;;;;;12.60;11.40;;;15.50;99.90;;;;;;4957964;28;20511;-70
2021/09/26 03:29:43;;;;;;;12.03;10.83;;;15.50;99.90;;;;;;4973817;28;20878;-70
2021/09/26 03:32:11;;;;;;;13.73;12.40;;;15.50;99.90;;;;;;4976323;28;20838;-69
2021/09/26 03:34:39;;;;;;;12.90;11.63;;;15.50;99.90;;;;;;4977132;28;20848;-70
2021/09/26 03:37:06;;;;;;;12.73;11.80;;;15.50;99.90;;;;;;4972980;28;20476;-70
2021/09/26 03:39:33;;;;;;;12.57;11.33;;;15.50;99.90;;;;;;4957332;28;20465;-70
2021/09/26 03:41:59;;;;;;;13.33;12.10;;;15.50;99.90;;;;;;4957232;28;20948;-70
2021/09/26 03:44:27;;;;;;;11.40;10.60;;;15.50;99.90;;;;;;4957102;28;20969;-70
2021/09/26 03:46:54;;;;;;;14.30;11.67;;;15.50;99.90;;;;;;4958063;28;20531;-70
2021/09/26 03:49:21;;;;;;;14.23;12.83;;;15.50;99.90;;;;;;4976796;28;20459;-70
2021/09/26 03:51:49;;;;;;;12.27;10.97;;;15.50;99.90;;;;;;4976271;28;20472;-71
2021/09/26 03:54:16;;;;;;;13.87;12.73;;;15.50;99.90;;;;;;4976308;28;20483;-70
2021/09/26 03:56:43;;;;;;;13.20;11.93;;;15.60;99.90;;;;;;4976168;28;20471;-69
2021/09/26 03:59:10;;;;;;;12.87;11.73;;;15.50;99.90;;;;;;4956915;28;20488;-70
2021/09/26 04:01:38;;;;;;;13.47;12.17;;;15.60;99.90;;;;;;4956521;28;20523;-70
2021/09/26 04:04:05;;;;;;;13.97;12.67;;;15.60;99.90;;;;;;4956990;28;20559;-69
2021/09/26 04:06:32;;;;;;;13.07;11.97;;;15.60;99.90;;;;;;4957003;28;20547;-69
2021/09/26 04:08:59;;;;;;;13.37;12.23;;;15.60;99.90;;;;;;4974556;28;20518;-70
2021/09/26 04:11:26;;;;;;;12.53;11.43;;;15.60;99.90;;;;;;4975946;28;20514;-70
2021/09/26 04:13:52;;;;;;;13.87;12.60;;;15.60;99.90;;;;;;4976475;28;20483;-70
2021/09/26 04:16:19;;;;;;;12.13;11.13;;;15.60;99.90;;;;;;4975538;28;20900;-69
2021/09/26 04:18:47;;;;;;;11.00;10.20;;;15.60;99.90;;;;;;4960354;28;20964;-70
2021/09/26 04:21:16;;;;;;;12.77;11.70;;;15.60;99.90;;;;;;4957080;28;20925;-70
2021/09/26 04:23:43;;;;;;;12.57;11.40;;;15.50;99.90;;;;;;4957235;29;21004;-70
2021/09/26 04:26:10;;;;;;;12.50;11.30;;;15.50;99.90;;;;;;4958128;28;20473;-70
2021/09/26 04:28:36;;;;;;;11.67;10.77;;;15.50;99.90;;;;;;4971589;28;20460;-70
2021/09/26 04:31:03;;;;;;;12.43;11.33;;;15.50;99.90;;;;;;4975825;28;20467;-69
2021/09/26 04:33:32;;;;;;;13.20;11.97;;;15.50;99.90;;;;;;4977287;28;20531;-68
2021/09/26 04:36:03;;;;;;;13.00;11.80;;;15.50;99.90;;;;;;4977661;28;20896;-68
2021/09/26 04:38:31;;;;;;;11.90;10.80;;;15.40;99.90;;;;;;4973004;28;20495;-70
2021/09/26 04:40:58;;;;;;;13.30;11.50;;;15.40;99.90;;;;;;4976061;28;20472;-69
2021/09/26 04:43:27;;;;;;;13.63;12.33;;;15.40;99.90;;;;;;4975609;28;20468;-69
2021/09/26 04:45:54;;;;;;;14.57;12.80;;;15.40;99.90;;;;;;4975735;28;20467;-69
2021/09/26 04:48:21;;;;;;;12.50;11.40;;;15.40;99.90;;;;;;4962695;28;20453;-69
2021/09/26 04:50:48;;;;;;;15.40;12.40;;;15.30;99.90;;;;;;4956939;28;20875;-69
2021/09/26 04:53:16;;;;;;;13.53;12.30;;;15.30;99.90;;;;;;4957235;28;20528;-69
2021/09/26 04:55:43;;;;;;;17.40;12.43;;;15.30;99.90;;;;;;4956231;28;20594;-69
2021/09/26 04:58:10;;;;;;;14.87;13.07;;;15.30;99.90;;;;;;4964363;28;20546;-67
2021/09/26 05:00:37;;;;;;;13.17;11.87;;;15.20;99.90;;;;;;4958373;28;20817;-69
2021/09/26 05:03:04;;;;;;;14.13;12.20;;;15.20;99.90;;;;;;4956714;28;20878;-69
2021/09/26 05:05:31;;;;;;;14.27;12.80;;;15.20;99.90;;;;;;4957373;28;20555;-69
2021/09/26 05:07:57;;;;;;;13.23;11.97;;;15.10;99.90;;;;;;4965544;28;20510;-70
2021/09/26 05:10:26;;;;;;;14.50;13.00;;;15.10;99.90;;;;;;4975954;28;20467;-70
2021/09/26 05:12:52;;;;;;;15.27;13.67;;;15.10;99.90;;;;;;4975941;28;20463;-70
2021/09/26 05:15:19;;;;;;;15.03;12.33;;;15.00;99.90;;;;;;4975814;28;20546;-70
2021/09/26 05:17:46;;;;;;;16.53;14.93;;;15.00;99.90;;;;;;4968268;28;20484;-69
2021/09/26 05:20:13;;;;;;;16.17;14.07;;;15.00;99.90;;;;;;4956803;28;20481;-69
2021/09/26 05:22:40;;;;;;;17.63;14.80;;;15.00;99.90;;;;;;4955552;28;20460;-70
2021/09/26 05:25:08;;;;;;;15.93;14.27;;;15.00;99.90;;;;;;4956116;28;20489;-68
2021/09/26 05:27:36;;;;;;;17.10;13.70;;;14.90;99.90;;;;;;4960095;28;20535;-68
2021/09/26 05:30:03;;;;;;;15.50;14.00;;;14.90;99.90;;;;;;4974826;28;20471;-68
2021/09/26 05:32:30;;;;;;;14.70;13.30;;;14.90;99.90;;;;;;4974032;28;20522;-68
2021/09/26 05:34:57;;;;;;;16.43;14.20;;;14.90;99.90;;;;;;4975340;28;20488;-68
2021/09/26 05:37:23;;;;;;;17.50;15.10;;;14.90;99.90;;;;;;4971245;28;20465;-69
2021/09/26 05:39:50;;;;;;;15.20;13.80;;;15.00;99.90;;;;;;4955431;28;20527;-68
2021/09/26 05:42:17;;;;;;;15.40;13.90;;;15.00;99.90;;;;;;4955377;28;20468;-68
2021/09/26 05:44:45;;;;;;;15.70;13.73;;;15.00;99.90;;;;;;4954932;28;20500;-69
2021/09/26 05:47:14;;;;;;;14.90;13.50;;;15.00;99.90;;;;;;4955860;28;20469;-68
2021/09/26 05:49:41;;;;;;;15.07;13.00;;;15.10;99.90;;;;;;4974266;28;20826;-68
2021/09/26 05:52:09;;;;;;;17.60;13.50;;;15.10;99.90;;;;;;4973917;28;20538;-68
2021/09/26 05:54:36;;;;;;;15.70;13.67;;;15.20;99.90;;;;;;4974098;28;20855;-68
2021/09/26 05:57:03;;;;;;;16.57;14.87;;;15.20;99.90;;;;;;4974023;28;20993;-68
2021/09/26 05:59:31;;;;;;;16.60;14.77;;;15.30;99.90;;;;;;4968376;28;20483;-69
2021/09/26 06:01:59;;;;;;;17.20;14.70;;;15.30;99.90;;;;;;4957817;28;20473;-69
2021/09/26 06:04:26;;;;;;;16.57;14.87;;;15.30;99.90;;;;;;4954862;28;20488;-68
2021/09/26 06:06:52;;;;;;;16.70;15.07;;;15.40;99.90;;;;;;4956224;28;20543;-67
2021/09/26 06:09:19;;;;;;;18.60;15.47;;;15.40;99.90;;;;;;4972475;28;20746;-68
2021/09/26 06:11:46;;;;;;;18.40;14.87;;;15.40;99.90;;;;;;4973568;28;20467;-69
2021/09/26 06:14:12;;;;;;;18.33;16.20;;;15.40;99.90;;;;;;4975061;28;21062;-68
2021/09/26 06:16:40;;;;;;;16.17;14.23;;;15.50;99.90;;;;;;4973269;28;20621;-69
2021/09/26 06:19:08;;;;;;;15.70;14.10;;;15.50;99.90;;;;;;4958084;28;21020;-70
2021/09/26 06:21:34;;;;;;;17.43;15.90;;;15.50;99.90;;;;;;4954457;28;20491;-71
2021/09/26 06:24:01;;;;;;;16.83;15.00;;;15.50;99.90;;;;;;4954626;28;20563;-70
2021/09/26 06:26:28;;;;;;;20.03;15.83;;;15.50;99.90;;;;;;4954548;28;20472;-69
2021/09/26 06:28:55;;;;;;;19.80;15.77;;;15.60;99.90;;;;;;4968705;28;20882;-71
2021/09/26 06:31:21;;;;;;;17.37;15.67;;;15.60;99.90;;;;;;4973307;28;20472;-70
2021/09/26 06:33:48;;;;;;;16.17;13.97;;;15.70;99.90;;;;;;4973644;28;20546;-69
2021/09/26 06:36:16;;;;;;;15.37;13.83;;;15.80;99.90;;;;;;4964123;28;20459;-70
2021/09/26 06:38:43;;;;;;;14.83;13.43;;;15.80;99.90;;;;;;4961166;28;20513;-69
2021/09/26 06:41:11;;;;;;;13.77;12.47;;;15.80;99.90;;;;;;4954150;28;20472;-69
2021/09/26 06:43:38;;;;;;;18.10;13.80;;;15.90;99.90;;;;;;4953696;28;20883;-69
2021/09/26 06:46:05;;;;;;;14.20;12.80;;;16.00;99.90;;;;;;4954526;28;20496;-69
2021/09/26 06:48:32;;;;;;;13.17;11.80;;;16.10;99.90;;;;;;4966882;28;20476;-69
2021/09/26 06:50:58;;;;;;;12.67;11.43;;;16.20;99.90;;;;;;4963940;28;20468;-68
2021/09/26 06:53:26;;;;;;;13.57;12.27;;;16.20;99.90;;;;;;4961775;28;20530;-68
2021/09/26 06:55:53;;;;;;;12.37;11.07;;;16.30;99.90;;;;;;4972844;28;20472;-68
2021/09/26 06:58:21;;;;;;;12.70;11.57;;;16.40;99.90;;;;;;4970593;28;20487;-68
2021/09/26 07:00:48;;;;;;;11.53;10.53;;;16.50;99.90;;;;;;4963023;28;20815;-68
2021/09/26 07:03:16;;;;;;;11.80;10.80;;;16.50;99.90;;;;;;4972161;28;20475;-68
2021/09/26 07:05:43;;;;;;;11.33;10.33;;;16.50;99.90;;;;;;4966495;28;20596;-67
2021/09/26 07:08:10;;;;;;;11.40;10.23;;;16.70;99.90;;;;;;4958203;28;20472;-67
2021/09/26 07:10:38;;;;;;;9.47;8.67;;;16.70;99.90;;;;;;4965523;28;20464;-69
2021/09/26 07:13:05;;;;;;;10.27;9.37;;;16.80;99.90;;;;;;4966158;28;20514;-70
2021/09/26 07:15:31;;;;;;;9.50;8.70;;;16.80;99.90;;;;;;4977815;28;20487;-71
2021/09/26 07:17:59;;;;;;;9.17;8.47;;;16.90;99.90;;;;;;4970890;28;20468;-71
2021/09/26 07:20:27;;;;;;;9.00;8.30;;;17.00;99.90;;;;;;4968646;28;20459;-70
2021/09/26 07:22:54;;;;;;;9.37;8.60;;;17.10;99.90;;;;;;4960407;28;20466;-70
2021/09/26 07:25:21;;;;;;;8.47;7.70;;;17.20;99.90;;;;;;4974121;28;20534;-69
2021/09/26 07:27:49;;;;;;;7.27;6.77;;;17.30;99.90;;;;;;4977518;28;20460;-70
2021/09/26 07:30:16;;;;;;;8.87;8.13;;;17.40;99.90;;;;;;4959719;28;20464;-70
2021/09/26 07:32:42;;;;;;;8.37;7.77;;;17.40;99.90;;;;;;4975353;28;20463;-70
2021/09/26 07:35:10;;;;;;;8.47;7.80;;;17.50;99.90;;;;;;4970160;28;20479;-69
2021/09/26 07:37:37;;;;;;;7.60;7.07;;;17.60;99.90;;;;;;4966035;28;20941;-68
2021/09/26 07:40:05;;;;;;;6.30;5.90;;;17.70;99.90;;;;;;4961058;28;20539;-70
2021/09/26 07:42:32;;;;;;;7.10;6.60;;;17.70;99.90;;;;;;4966942;28;20456;-68
2021/09/26 07:45:03;;;;;;;7.07;6.60;;;17.90;99.90;;;;;;4969957;28;20481;-68
2021/09/26 07:47:30;;;;;;;7.27;6.53;;;18.00;99.90;;;;;;4967697;28;20515;-69
2021/09/26 07:49:56;;;;;;;6.53;6.13;;;18.00;99.90;;;;;;4958221;28;20468;-69
2021/09/26 07:52:23;;;;;;;6.30;6.00;;;18.10;99.90;;;;;;4970022;28;20479;-70
2021/09/26 07:54:50;;;;;;;6.40;5.80;;;18.20;99.90;;;;;;4971796;28;20862;-70
2021/09/26 07:57:19;;;;;;;6.47;5.97;;;18.20;99.90;;;;;;4958365;28;20461;-72
2021/09/26 07:59:46;;;;;;;5.87;5.37;;;18.30;99.90;;;;;;4973733;28;20488;-72
2021/09/26 08:02:14;;;;;;;6.47;6.07;;;18.40;99.90;;;;;;4972379;28;20469;-73
2021/09/26 08:04:41;;;;;;;6.20;5.80;;;18.50;99.90;;;;;;4960568;28;20551;-70
2021/09/26 08:07:08;;;;;;;6.17;5.77;;;18.60;99.90;;;;;;4967702;28;20985;-71
2021/09/26 08:09:35;;;;;;;5.73;5.30;;;18.70;99.90;;;;;;4976431;28;20541;-71
2021/09/26 08:12:02;;;;;;;6.00;5.60;;;18.80;99.90;;;;;;4974154;28;20978;-69
2021/09/26 08:14:29;;;;;;;6.13;5.83;;;18.80;99.90;;;;;;4971457;28;20476;-69
2021/09/26 08:16:56;;;;;;;6.03;5.53;;;19.00;99.90;;;;;;4969477;28;21000;-70
2021/09/26 08:19:25;;;;;;;5.70;5.40;;;19.10;99.90;;;;;;4957028;28;20492;-69
2021/09/26 08:21:53;;;;;;;6.30;6.00;;;19.20;99.90;;;;;;4961660;28;21035;-70
2021/09/26 08:24:20;;;;;;;5.87;5.47;;;19.20;99.90;;;;;;4959733;28;20485;-70
2021/09/26 08:26:47;;;;;;;6.43;5.93;;;19.30;99.90;;;;;;4963925;28;20872;-69
2021/09/26 08:29:14;;;;;;;5.27;5.03;;;19.30;99.90;;;;;;4969014;28;20522;-69
2021/09/26 08:31:40;;;;;;;5.57;5.37;;;19.30;99.90;;;;;;4974594;28;20572;-69
2021/09/26 08:34:07;;;;;;;5.50;5.20;;;19.40;99.90;;;;;;4975110;28;20504;-69
2021/09/26 08:36:35;;;;;;;6.00;5.30;;;19.50;99.90;;;;;;4975463;28;20471;-69
2021/09/26 08:39:02;;;;;;;6.20;5.60;;;19.60;99.90;;;;;;4977787;28;20491;-69
2021/09/26 08:41:28;;;;;;;6.13;5.57;;;19.70;99.90;;;;;;4976873;28;20576;-69
2021/09/26 08:43:56;;;;;;;5.47;5.23;;;19.80;99.90;;;;;;4977030;28;21055;-69
2021/09/26 08:46:23;;;;;;;6.60;6.13;;;19.80;99.90;;;;;;4976627;28;21106;-69
2021/09/26 08:48:50;;;;;;;4.80;4.70;;;19.90;99.90;;;;;;4977273;28;20464;-70
2021/09/26 08:51:18;;;;;;;6.33;5.93;;;20.00;99.90;;;;;;4977023;28;20464;-70
2021/09/26 08:53:47;;;;;;;5.50;5.20;;;20.10;99.90;;;;;;4978149;28;20487;-70
2021/09/26 08:56:17;;;;;;;6.17;5.77;;;20.20;99.90;;;;;;4977739;28;20470;-69
2021/09/26 08:58:44;;;;;;;5.77;5.53;;;20.20;99.90;;;;;;4978261;28;20464;-69
2021/09/26 09:01:11;;;;;;;5.30;5.00;;;20.30;99.90;;;;;;4977610;28;20530;-70
2021/09/26 09:03:39;;;;;;;5.73;5.43;;;20.40;99.90;;;;;;4977983;28;20460;-69
2021/09/26 09:06:05;;;;;;;5.73;5.43;;;20.40;99.90;;;;;;4977857;28;20460;-70
2021/09/26 09:08:39;;;;;;;5.27;5.10;;;20.40;99.90;;;;;;4977234;28;20464;-69
2021/09/26 09:11:09;;;;;;;5.20;4.70;;;20.50;99.90;;;;;;4977451;28;20468;-69
2021/09/26 09:13:38;;;;;;;6.13;5.60;;;20.70;99.90;;;;;;4975441;28;20479;-69
2021/09/26 09:16:07;;;;;;;5.73;5.40;;;20.70;99.90;;;;;;4975094;28;20460;-70
2021/09/26 09:18:42;;;;;;;6.00;5.50;;;20.80;99.90;;;;;;4975311;28;20815;-69
2021/09/26 09:21:20;;;;;;;5.00;4.77;;;20.90;99.90;;;;;;4975297;28;20502;-69
2021/09/26 09:23:48;;;;;;;5.40;5.20;;;20.90;99.90;;;;;;4975919;28;20506;-69
2021/09/26 09:26:16;;;;;;;5.37;5.07;;;21.00;99.90;;;;;;4974933;28;20471;-69
2021/09/26 09:28:43;;;;;;;4.10;4.00;;;21.10;99.90;;;;;;4974657;28;20467;-69
2021/09/26 09:31:11;;;;;;;5.53;5.10;;;21.20;99.90;;;;;;4974903;28;20889;-69
2021/09/26 09:33:40;;;;;;;5.30;5.10;;;21.20;99.90;;;;;;4974472;28;21080;-69
2021/09/26 09:36:19;;;;;;;6.63;5.00;;;21.30;99.90;;;;;;4974797;28;20459;-69
2021/09/26 09:38:46;;;;;;;4.50;4.40;;;21.40;99.90;;;;;;4974918;28;20592;-69
2021/09/26 09:41:12;;;;;;;5.00;4.70;;;21.50;99.90;;;;;;4975044;28;20464;-69
2021/09/26 09:43:50;;;;;;;4.50;4.30;;;21.50;99.90;;;;;;4974484;28;20908;-69
2021/09/26 09:46:29;;;;;;;4.63;4.50;;;21.70;99.90;;;;;;4973503;28;20467;-69
2021/09/26 09:49:11;;;;;;;4.90;4.70;;;21.60;99.90;;;;;;4975438;28;20468;-70
2021/09/26 09:51:39;;;;;;;4.80;4.60;;;21.50;99.90;;;;;;4980389;28;20467;-71
2021/09/26 09:54:07;;;;;;;4.90;4.80;;;21.50;99.90;;;;;;4977148;28;20479;-71
2021/09/26 09:56:41;;;;;;;5.07;4.77;;;21.50;99.90;;;;;;4974886;28;20554;-68
2021/09/26 09:59:09;;;;;;;4.47;4.20;;;21.70;99.90;;;;;;4974730;28;20569;-67
2021/09/26 10:01:37;;;;;;;4.63;4.43;;;21.70;99.90;;;;;;4974931;28;20518;-68
2021/09/26 10:04:05;;;;;;;5.13;4.93;;;21.70;99.90;;;;;;4976878;28;20494;-71
2021/09/26 10:06:37;;;;;;;4.63;4.50;;;21.70;99.90;;;;;;4974605;28;20534;-71
2021/09/26 10:09:21;;;;;;;5.77;5.57;;;21.60;99.90;;;;;;4974623;28;20464;-69
2021/09/26 10:11:50;;;;;;;4.97;4.67;;;21.60;99.90;;;;;;4973180;28;20842;-69
2021/09/26 10:14:20;;;;;;;5.97;5.67;;;21.60;99.90;;;;;;4973755;28;20487;-67
2021/09/26 10:16:47;;;;;;;6.20;5.90;;;21.70;99.90;;;;;;4973246;28;20546;-68
2021/09/26 10:19:14;;;;;;;5.73;5.33;;;21.70;99.90;;;;;;4973952;28;20976;-68
2021/09/26 10:21:41;;;;;;;5.07;4.87;;;21.80;99.90;;;;;;4973649;28;20894;-69
2021/09/26 10:24:09;;;;;;;5.30;4.80;;;21.90;99.90;;;;;;4974025;28;20550;-68
2021/09/26 10:26:38;;;;;;;5.13;4.83;;;22.00;99.90;;;;;;4973912;28;20522;-68
2021/09/26 10:29:07;;;;;;;5.07;4.87;;;22.10;99.90;;;;;;4974052;28;20495;-68
2021/09/26 10:31:36;;;;;;;4.03;3.93;;;22.10;99.90;;;;;;4973009;28;20463;-69
2021/09/26 10:34:04;;;;;;;6.50;5.13;;;22.20;99.90;;;;;;4973550;28;20518;-68
2021/09/26 10:36:33;;;;;;;4.37;4.27;;;22.40;99.90;;;;;;4973798;28;20503;-69
2021/09/26 10:39:02;;;;;;;5.00;4.70;;;22.40;99.90;;;;;;4973499;28;20483;-69
2021/09/26 10:41:30;;;;;;;4.50;4.40;;;22.40;99.90;;;;;;4973481;28;20471;-69
2021/09/26 10:43:57;;;;;;;5.27;4.80;;;22.40;99.90;;;;;;4973554;28;20503;-68
2021/09/26 10:46:25;;;;;;;5.47;5.17;;;22.50;99.90;;;;;;4972861;28;20563;-68
2021/09/26 10:49:07;;;;;;;5.40;5.20;;;22.60;99.90;;;;;;4973725;28;20470;-68
2021/09/26 10:51:54;;;;;;;6.33;5.77;;;22.60;99.90;;;;;;4973274;28;20518;-68
2021/09/26 10:54:35;;;;;;;5.50;5.20;;;22.80;99.90;;;;;;4973522;28;20488;-68
2021/09/26 10:57:25;;;;;;;5.90;5.50;;;22.90;99.90;;;;;;4973441;28;20467;-70
2021/09/26 10:59:53;;;;;;;5.60;5.30;;;23.10;99.90;;;;;;4973988;28;20499;-71
2021/09/26 11:02:45;;;;;;;4.50;4.40;;;23.20;99.90;;;;;;4972779;28;20471;-72
2021/09/26 11:05:44;;;;;;;5.57;5.27;;;23.30;99.90;;;;;;4974838;28;20479;-72
2021/09/26 11:08:14;;;;;;;5.40;5.00;;;23.20;99.90;;;;;;4914341;29;20462;-72
2021/09/26 11:10:45;;;;;;;5.57;5.17;;;23.20;99.90;;;;;;4961100;28;20468;-72
2021/09/26 11:13:29;;;;;;;5.27;5.00;;;23.10;99.90;;;;;;4973078;28;20919;-72
2021/09/26 11:16:09;;;;;;;4.93;4.73;;;23.10;99.90;;;;;;4973455;28;20468;-69
2021/09/26 11:19:11;;;;;;;5.60;5.30;;;23.10;99.90;;;;;;4973592;28;20471;-72
2021/09/26 11:21:58;;;;;;;5.63;5.40;;;23.00;99.90;;;;;;4973348;28;20931;-68
2021/09/26 11:24:59;;;;;;;4.50;4.40;;;23.00;99.90;;;;;;4973191;28;20928;-68
2021/09/26 11:27:34;;;;;;;4.93;4.73;;;22.90;99.90;;;;;;4973357;28;20467;-69
2021/09/26 11:30:27;;;;;;;5.10;4.73;;;23.00;99.90;;;;;;4973246;28;20467;-68
2021/09/26 11:33:00;;;;;;;4.47;4.37;;;23.10;99.90;;;;;;4972047;28;20495;-69
2021/09/26 11:35:31;;;;;;;4.67;4.47;;;23.10;99.90;;;;;;4973063;28;21002;-68
2021/09/26 11:38:01;;;;;;;4.90;4.60;;;23.10;99.90;;;;;;4972868;28;20476;-68
2021/09/26 11:41:06;;;;;;;5.37;5.13;;;23.10;99.90;;;;;;4972904;28;20483;-71
2021/09/26 11:43:39;;;;;;;5.10;4.90;;;23.10;99.90;;;;;;4913146;29;20581;-70
2021/09/26 11:46:21;;;;;;;4.70;4.50;;;23.20;99.90;;;;;;4963770;28;20523;-70
2021/09/26 11:48:49;;;;;;;5.07;4.93;;;23.20;99.90;;;;;;4973403;28;20928;-71
2021/09/26 11:51:17;;;;;;;5.27;4.97;;;23.10;99.90;;;;;;4973577;28;20459;-70
2021/09/26 11:53:47;;;;;;;4.80;4.50;;;23.10;99.90;;;;;;4976256;28;20487;-71
2021/09/26 11:56:18;;;;;;;5.13;4.93;;;23.20;99.90;;;;;;4975996;28;20571;-71
2021/09/26 11:58:45;;;;;;;6.03;5.50;;;23.30;99.90;;;;;;4976607;28;20464;-70
2021/09/26 12:01:12;;;;;;;5.40;5.20;;;23.40;99.90;;;;;;4975135;28;20492;-71
2021/09/26 12:03:39;;;;;;;5.00;4.80;;;23.50;99.90;;;;;;4976389;28;20491;-71
2021/09/26 12:06:06;;;;;;;4.67;4.50;;;23.60;99.90;;;;;;4976757;28;20840;-71
2021/09/26 12:08:37;;;;;;;5.10;4.80;;;23.80;99.90;;;;;;4979460;28;20503;-72
2021/09/26 12:11:10;;;;;;;5.30;5.00;;;23.90;99.90;;;;;;4979277;28;20459;-72
2021/09/26 12:13:51;;;;;;;5.70;5.40;;;23.90;99.90;;;;;;4979454;28;20490;-72
2021/09/26 12:16:19;;;;;;;5.43;5.23;;;23.80;99.90;;;;;;4979463;28;20467;-71
2021/09/26 12:18:54;;;;;;;5.20;5.00;;;23.80;99.90;;;;;;4982243;28;20484;-72
2021/09/26 12:21:25;;;;;;;5.57;5.00;;;23.80;99.90;;;;;;4981926;28;20649;-71
2021/09/26 12:23:56;;;;;;;5.20;5.00;;;23.90;99.90;;;;;;4981383;28;20579;-72
2021/09/26 12:26:27;;;;;;;4.97;4.77;;;23.90;99.90;;;;;;4980498;28;20552;-71
2021/09/26 12:29:06;;;;;;;5.37;5.17;;;24.10;99.90;;;;;;4984716;28;20470;-72
2021/09/26 12:31:35;;;;;;;5.03;4.70;;;24.10;99.90;;;;;;4984409;28;20529;-71
2021/09/26 12:34:03;;;;;;;5.03;4.80;;;24.20;99.90;;;;;;4986545;28;20506;-71
2021/09/26 12:36:36;;;;;;;5.40;5.10;;;24.30;99.90;;;;;;4985042;28;20464;-71
2021/09/26 12:39:06;;;;;;;5.30;4.93;;;24.30;99.90;;;;;;4985573;28;20523;-72
2021/09/26 12:41:37;;;;;;;5.30;5.10;;;24.30;99.90;;;;;;4981500;28;20538;-71
2021/09/26 12:44:07;;;;;;;5.00;4.80;;;24.40;99.90;;;;;;4975715;28;20584;-71
2021/09/26 12:46:37;;;;;;;5.47;5.00;;;24.40;99.90;;;;;;4975292;28;20815;-71
2021/09/26 12:49:05;;;;;;;5.67;5.37;;;24.40;99.90;;;;;;4975970;28;20869;-72